Ulan Bator, Mongolia
Current Conditions -  °F | °C
As of 12:00 AM on Tuesday 27 Jan 2015 (Local Time) from ZMUB Reporting Station
Clear Clear  
Wind Chill: -36°   Ceiling: Unl
Heat Index: -29°   Visibility: 6mi
Dew Point: -33°   Wind: 4mph
Humidity: 69%   Direction: 150°SSE
Pressure: 30.48"   Gusts: NA
Location:  47.92°N, 106.91°E
Report Text: ZMUB 261600Z 15002MPS CAVOK M29/M33 Q1032 NOSIG RMK QFE664.9 64
Loading
Personal Weather Stations






























Interactive Weather Map New forecast layout! Learn more

10-Day Weather Forecast

Advertisements
Track Severe Weather on mobile